VOZ12 YSSY-YMML
Flight info
| Callsign | VOZ12 |
|---|---|
| Flight time | 1h 6m |
| Altitude | 40000 |
| Route | DCT TESAT H65 LEECE Q29 ML DCT |
| Aircraft | B738/M-SDE2E3FGHIRWXY/LB1 |
Departure
| Time | 2026-05-08 06:52 |
|---|---|
| Airport | Sydney Kingsford Smith International Airport (YSSY) |
Arrival
| Time | 2026-05-08 07:59 |
|---|---|
| Airport | Melbourne Airport (YMML) |
| Time | Latitude | Longitude | Altitude | Speed | Heading |
|---|---|---|---|---|---|
| 2026-05-08 06:27 | -33.93462 | 151.17686 | 27 ft | 0 kts | 100° |
| 2026-05-08 06:44 | -33.93461 | 151.17678 | 10 ft | 3 kts | 100° |
| 2026-05-08 06:45 | -33.93458 | 151.17656 | 21 ft | 3 kts | 100° |
| 2026-05-08 06:45 | -33.93455 | 151.17635 | 36 ft | 3 kts | 100° |
| 2026-05-08 06:45 | -33.93452 | 151.17614 | 29 ft | 2 kts | 106° |
| 2026-05-08 06:45 | -33.93443 | 151.17601 | 29 ft | 0 kts | 173° |
| 2026-05-08 06:47 | -33.93455 | 151.17602 | 29 ft | 5 kts | 178° |
| 2026-05-08 06:47 | -33.93522 | 151.17594 | 26 ft | 15 kts | 170° |
| 2026-05-08 06:47 | -33.93639 | 151.17630 | 28 ft | 18 kts | 156° |
| 2026-05-08 06:48 | -33.93736 | 151.17745 | 25 ft | 21 kts | 117° |
| 2026-05-08 06:48 | -33.93805 | 151.17909 | 27 ft | 23 kts | 92° |
| 2026-05-08 06:48 | -33.93767 | 151.18093 | 30 ft | 23 kts | 83° |
| 2026-05-08 06:48 | -33.93726 | 151.18290 | 30 ft | 25 kts | 70° |
| 2026-05-08 06:49 | -33.93665 | 151.18501 | 28 ft | 28 kts | 74° |
| 2026-05-08 06:49 | -33.93626 | 151.18733 | 30 ft | 29 kts | 96° |
| 2026-05-08 06:49 | -33.93653 | 151.18810 | 28 ft | 0 kts | 154° |
| 2026-05-08 06:51 | -33.93677 | 151.18824 | 32 ft | 12 kts | 154° |
| 2026-05-08 06:51 | -33.93794 | 151.18803 | 24 ft | 24 kts | 235° |
| 2026-05-08 06:51 | -33.93858 | 151.18565 | 28 ft | 45 kts | 256° |
| 2026-05-08 06:51 | -33.93993 | 151.17974 | 22 ft | 101 kts | 252° |
| 2026-05-08 06:52 | -33.94206 | 151.17012 | 161 ft | 126 kts | 255° |
| 2026-05-08 06:52 | -33.94428 | 151.16023 | 751 ft | 117 kts | 252° |
| 2026-05-08 06:52 | -33.94668 | 151.15045 | 1043 ft | 128 kts | 251° |
| 2026-05-08 06:52 | -33.94898 | 151.13980 | 1421 ft | 135 kts | 255° |
| 2026-05-08 06:53 | -33.95107 | 151.12921 | 2040 ft | 136 kts | 254° |
| 2026-05-08 06:53 | -33.95379 | 151.11735 | 2689 ft | 146 kts | 251° |
| 2026-05-08 06:53 | -33.95691 | 151.10657 | 3843 ft | 131 kts | 237° |
| 2026-05-08 06:53 | -33.96388 | 151.09995 | 4568 ft | 135 kts | 201° |
| 2026-05-08 06:54 | -33.97346 | 151.09517 | 4988 ft | 169 kts | 202° |
| 2026-05-08 06:54 | -33.98557 | 151.08886 | 5035 ft | 206 kts | 202° |
| 2026-05-08 06:54 | -33.99907 | 151.08181 | 5121 ft | 213 kts | 202° |
| 2026-05-08 06:54 | -34.01276 | 151.07467 | 5833 ft | 217 kts | 202° |
| 2026-05-08 06:55 | -34.02684 | 151.06732 | 6621 ft | 222 kts | 202° |
| 2026-05-08 06:55 | -34.04114 | 151.05989 | 7432 ft | 224 kts | 203° |
| 2026-05-08 06:55 | -34.05559 | 151.05241 | 8157 ft | 229 kts | 203° |
| 2026-05-08 06:55 | -34.07076 | 151.04454 | 8687 ft | 247 kts | 204° |
| 2026-05-08 06:56 | -34.08685 | 151.03620 | 9436 ft | 259 kts | 203° |
| 2026-05-08 06:56 | -34.10341 | 151.02761 | 10481 ft | 262 kts | 204° |
| 2026-05-08 06:56 | -34.12096 | 151.01850 | 10863 ft | 289 kts | 204° |
| 2026-05-08 06:56 | -34.14029 | 151.00848 | 11301 ft | 309 kts | 204° |
| 2026-05-08 06:57 | -34.16030 | 150.99811 | 12145 ft | 314 kts | 204° |
| 2026-05-08 06:57 | -34.18014 | 150.98783 | 13139 ft | 315 kts | 204° |
| 2026-05-08 06:57 | -34.20051 | 150.97727 | 14050 ft | 319 kts | 204° |
| 2026-05-08 06:57 | -34.22109 | 150.96660 | 14837 ft | 323 kts | 204° |
| 2026-05-08 06:58 | -34.24192 | 150.95579 | 15650 ft | 327 kts | 204° |
| 2026-05-08 06:58 | -34.26293 | 150.94488 | 16462 ft | 330 kts | 204° |
| 2026-05-08 06:58 | -34.28392 | 150.93397 | 17260 ft | 334 kts | 204° |
| 2026-05-08 06:58 | -34.30545 | 150.92275 | 18034 ft | 339 kts | 205° |
| 2026-05-08 06:59 | -34.32742 | 150.91132 | 18745 ft | 344 kts | 205° |
| 2026-05-08 06:59 | -34.34917 | 150.90001 | 19518 ft | 345 kts | 204° |
| 2026-05-08 06:59 | -34.37137 | 150.88846 | 20305 ft | 346 kts | 204° |
| 2026-05-08 06:59 | -34.39355 | 150.87691 | 21069 ft | 348 kts | 204° |
| 2026-05-08 07:00 | -34.41600 | 150.86521 | 21786 ft | 351 kts | 204° |
| 2026-05-08 07:00 | -34.43830 | 150.85357 | 22474 ft | 354 kts | 204° |
| 2026-05-08 07:00 | -34.46103 | 150.84170 | 23207 ft | 356 kts | 204° |
| 2026-05-08 07:00 | -34.48403 | 150.82970 | 23883 ft | 359 kts | 204° |
| 2026-05-08 07:01 | -34.50676 | 150.81783 | 24505 ft | 361 kts | 204° |
| 2026-05-08 07:01 | -34.52975 | 150.80507 | 25049 ft | 364 kts | 210° |
| 2026-05-08 07:01 | -34.55093 | 150.78777 | 25583 ft | 368 kts | 218° |
| 2026-05-08 07:01 | -34.57045 | 150.76733 | 26127 ft | 371 kts | 223° |
| 2026-05-08 07:02 | -34.58726 | 150.74387 | 26627 ft | 376 kts | 230° |
| 2026-05-08 07:02 | -34.60309 | 150.71804 | 27023 ft | 383 kts | 232° |
| 2026-05-08 07:02 | -34.61878 | 150.69170 | 27543 ft | 386 kts | 232° |
| 2026-05-08 07:02 | -34.63449 | 150.66511 | 28114 ft | 387 kts | 232° |
| 2026-05-08 07:03 | -34.65028 | 150.63845 | 28680 ft | 389 kts | 232° |
| 2026-05-08 07:03 | -34.66601 | 150.61201 | 29190 ft | 392 kts | 232° |
| 2026-05-08 07:03 | -34.68209 | 150.58510 | 29677 ft | 394 kts | 232° |
| 2026-05-08 07:03 | -34.69835 | 150.55793 | 30136 ft | 397 kts | 232° |
| 2026-05-08 07:04 | -34.71469 | 150.53065 | 30534 ft | 399 kts | 232° |
| 2026-05-08 07:04 | -34.73112 | 150.50322 | 30890 ft | 403 kts | 232° |
| 2026-05-08 07:04 | -34.74747 | 150.47591 | 31215 ft | 406 kts | 232° |
| 2026-05-08 07:04 | -34.76419 | 150.44797 | 31516 ft | 408 kts | 233° |
| 2026-05-08 07:05 | -34.78091 | 150.42001 | 31901 ft | 409 kts | 233° |
| 2026-05-08 07:05 | -34.79762 | 150.39204 | 32403 ft | 407 kts | 233° |
| 2026-05-08 07:05 | -34.81409 | 150.36442 | 32907 ft | 406 kts | 232° |
| 2026-05-08 07:05 | -34.83065 | 150.33665 | 33365 ft | 404 kts | 232° |
| 2026-05-08 07:06 | -34.84717 | 150.30894 | 33812 ft | 404 kts | 232° |
| 2026-05-08 07:06 | -34.86368 | 150.28122 | 34231 ft | 403 kts | 232° |
| 2026-05-08 07:06 | -34.88011 | 150.25359 | 34648 ft | 400 kts | 232° |
| 2026-05-08 07:06 | -34.89651 | 150.22601 | 34879 ft | 403 kts | 232° |
| 2026-05-08 07:07 | -34.91282 | 150.19856 | 35146 ft | 403 kts | 233° |
| 2026-05-08 07:07 | -34.92923 | 150.17093 | 35477 ft | 402 kts | 233° |
| 2026-05-08 07:07 | -34.94568 | 150.14319 | 35745 ft | 403 kts | 233° |
| 2026-05-08 07:07 | -34.96222 | 150.11529 | 36021 ft | 404 kts | 233° |
| 2026-05-08 07:08 | -34.97850 | 150.08781 | 36385 ft | 402 kts | 233° |
| 2026-05-08 07:08 | -34.99485 | 150.06017 | 36755 ft | 400 kts | 233° |
| 2026-05-08 07:08 | -35.00564 | 150.04193 | 36959 ft | 400 kts | 234° |
| 2026-05-08 07:08 | -35.02196 | 150.01431 | 37214 ft | 401 kts | 234° |
| 2026-05-08 07:09 | -35.03828 | 149.98667 | 37482 ft | 401 kts | 234° |
| 2026-05-08 07:09 | -35.05461 | 149.95900 | 37762 ft | 400 kts | 234° |
| 2026-05-08 07:09 | -35.07621 | 149.92240 | 38067 ft | 401 kts | 234° |
| 2026-05-08 07:09 | -35.09253 | 149.89475 | 38351 ft | 400 kts | 234° |
| 2026-05-08 07:10 | -35.10333 | 149.87645 | 38518 ft | 400 kts | 235° |
| 2026-05-08 07:10 | -35.11966 | 149.84876 | 38657 ft | 402 kts | 234° |
| 2026-05-08 07:10 | -35.13596 | 149.82111 | 38833 ft | 403 kts | 234° |
| 2026-05-08 07:10 | -35.15240 | 149.79317 | 39063 ft | 402 kts | 235° |
| 2026-05-08 07:11 | -35.16871 | 149.76545 | 39259 ft | 402 kts | 235° |
| 2026-05-08 07:11 | -35.18512 | 149.73752 | 39385 ft | 403 kts | 235° |
| 2026-05-08 07:11 | -35.20153 | 149.70957 | 39534 ft | 404 kts | 235° |
| 2026-05-08 07:11 | -35.21774 | 149.68194 | 39698 ft | 404 kts | 235° |
| 2026-05-08 07:12 | -35.23414 | 149.65395 | 39887 ft | 404 kts | 235° |
| 2026-05-08 07:12 | -35.25054 | 149.62596 | 40030 ft | 404 kts | 235° |
| 2026-05-08 07:12 | -35.28354 | 149.56953 | 40155 ft | 409 kts | 235° |
| 2026-05-08 07:13 | -35.31651 | 149.51308 | 40155 ft | 408 kts | 235° |
| 2026-05-08 07:13 | -35.34933 | 149.45681 | 40157 ft | 406 kts | 235° |
| 2026-05-08 07:14 | -35.38209 | 149.40053 | 40153 ft | 404 kts | 235° |
| 2026-05-08 07:14 | -35.41472 | 149.34438 | 40157 ft | 403 kts | 235° |
| 2026-05-08 07:15 | -35.44695 | 149.28885 | 40164 ft | 402 kts | 235° |
| 2026-05-08 07:15 | -35.48094 | 149.23017 | 40157 ft | 403 kts | 235° |
| 2026-05-08 07:16 | -35.54551 | 149.11841 | 40167 ft | 403 kts | 236° |
| 2026-05-08 07:16 | -35.61056 | 149.00548 | 40163 ft | 404 kts | 235° |
| 2026-05-08 07:17 | -35.67518 | 148.89296 | 40174 ft | 405 kts | 235° |
| 2026-05-08 07:17 | -35.74038 | 148.77904 | 40190 ft | 407 kts | 235° |
| 2026-05-08 07:18 | -35.80529 | 148.66525 | 40194 ft | 408 kts | 235° |
| 2026-05-08 07:18 | -35.87065 | 148.55029 | 40207 ft | 409 kts | 235° |
| 2026-05-08 07:19 | -35.93581 | 148.43475 | 40201 ft | 410 kts | 235° |
| 2026-05-08 07:19 | -36.00061 | 148.31908 | 40223 ft | 412 kts | 235° |
| 2026-05-08 07:20 | -36.06619 | 148.20197 | 40222 ft | 414 kts | 235° |
| 2026-05-08 07:20 | -36.13134 | 148.08514 | 40230 ft | 414 kts | 235° |
| 2026-05-08 07:21 | -36.19679 | 147.96795 | 40230 ft | 415 kts | 235° |
| 2026-05-08 07:21 | -36.26224 | 147.85028 | 40213 ft | 415 kts | 234° |
| 2026-05-08 07:22 | -36.32789 | 147.73186 | 40226 ft | 416 kts | 235° |
| 2026-05-08 07:22 | -36.39299 | 147.61383 | 40201 ft | 416 kts | 234° |
| 2026-05-08 07:23 | -36.45851 | 147.49453 | 40230 ft | 417 kts | 235° |
| 2026-05-08 07:23 | -36.52354 | 147.37575 | 40193 ft | 417 kts | 234° |
| 2026-05-08 07:24 | -36.58907 | 147.25561 | 40219 ft | 418 kts | 234° |
| 2026-05-08 07:24 | -36.65177 | 147.14028 | 40222 ft | 420 kts | 234° |
| 2026-05-08 07:25 | -36.66831 | 147.10978 | 39739 ft | 428 kts | 234° |
| 2026-05-08 07:25 | -36.68498 | 147.07903 | 39204 ft | 427 kts | 234° |
| 2026-05-08 07:25 | -36.71805 | 147.01795 | 37478 ft | 433 kts | 233° |
| 2026-05-08 07:26 | -36.73498 | 146.98671 | 36768 ft | 432 kts | 232° |
| 2026-05-08 07:26 | -36.75183 | 146.95557 | 36061 ft | 431 kts | 232° |
| 2026-05-08 07:26 | -36.76827 | 146.92512 | 35643 ft | 423 kts | 232° |
| 2026-05-08 07:26 | -36.78446 | 146.89510 | 35405 ft | 412 kts | 232° |
| 2026-05-08 07:27 | -36.80032 | 146.86566 | 35019 ft | 405 kts | 231° |
| 2026-05-08 07:27 | -36.81598 | 146.83660 | 34546 ft | 401 kts | 231° |
| 2026-05-08 07:27 | -36.83150 | 146.80781 | 34050 ft | 397 kts | 231° |
| 2026-05-08 07:27 | -36.84692 | 146.77920 | 33553 ft | 393 kts | 231° |
| 2026-05-08 07:28 | -36.86198 | 146.75121 | 33076 ft | 389 kts | 231° |
| 2026-05-08 07:28 | -36.87699 | 146.72329 | 32632 ft | 384 kts | 231° |
| 2026-05-08 07:28 | -36.89186 | 146.69558 | 32162 ft | 380 kts | 231° |
| 2026-05-08 07:28 | -36.90635 | 146.66859 | 31753 ft | 376 kts | 231° |
| 2026-05-08 07:29 | -36.92085 | 146.64154 | 31337 ft | 372 kts | 231° |
| 2026-05-08 07:29 | -36.93519 | 146.61478 | 30889 ft | 370 kts | 232° |
| 2026-05-08 07:29 | -36.94946 | 146.58814 | 30465 ft | 367 kts | 232° |
| 2026-05-08 07:29 | -36.96362 | 146.56166 | 30003 ft | 364 kts | 232° |
| 2026-05-08 07:30 | -36.97762 | 146.53544 | 29534 ft | 360 kts | 232° |
| 2026-05-08 07:30 | -36.99145 | 146.50954 | 29117 ft | 355 kts | 232° |
| 2026-05-08 07:30 | -37.00494 | 146.48426 | 28681 ft | 352 kts | 232° |
| 2026-05-08 07:30 | -37.01848 | 146.45888 | 28253 ft | 348 kts | 232° |
| 2026-05-08 07:31 | -37.03186 | 146.43373 | 27830 ft | 344 kts | 232° |
| 2026-05-08 07:31 | -37.04508 | 146.40892 | 27396 ft | 341 kts | 232° |
| 2026-05-08 07:31 | -37.05810 | 146.38447 | 26995 ft | 339 kts | 232° |
| 2026-05-08 07:31 | -37.07124 | 146.35977 | 26577 ft | 340 kts | 232° |
| 2026-05-08 07:32 | -37.08446 | 146.33489 | 26166 ft | 342 kts | 232° |
| 2026-05-08 07:32 | -37.09781 | 146.30972 | 25759 ft | 351 kts | 232° |
| 2026-05-08 07:32 | -37.11128 | 146.28431 | 25340 ft | 357 kts | 232° |
| 2026-05-08 07:32 | -37.12504 | 146.25829 | 24896 ft | 356 kts | 232° |
| 2026-05-08 07:33 | -37.13867 | 146.23245 | 24469 ft | 354 kts | 233° |
| 2026-05-08 07:33 | -37.15224 | 146.20671 | 24037 ft | 352 kts | 233° |
| 2026-05-08 07:33 | -37.16574 | 146.18110 | 23559 ft | 351 kts | 233° |
| 2026-05-08 07:33 | -37.17919 | 146.15557 | 23090 ft | 348 kts | 233° |
| 2026-05-08 07:34 | -37.19234 | 146.13059 | 22662 ft | 345 kts | 233° |
| 2026-05-08 07:34 | -37.20552 | 146.10555 | 22227 ft | 342 kts | 233° |
| 2026-05-08 07:34 | -37.21858 | 146.08071 | 21814 ft | 339 kts | 233° |
| 2026-05-08 07:34 | -37.23155 | 146.05603 | 21405 ft | 336 kts | 233° |
| 2026-05-08 07:35 | -37.24421 | 146.03190 | 20988 ft | 333 kts | 233° |
| 2026-05-08 07:35 | -37.25699 | 146.00758 | 20583 ft | 331 kts | 233° |
| 2026-05-08 07:35 | -37.26965 | 145.98345 | 20178 ft | 329 kts | 234° |
| 2026-05-08 07:35 | -37.28208 | 145.95973 | 19779 ft | 327 kts | 234° |
| 2026-05-08 07:36 | -37.29428 | 145.93560 | 19368 ft | 327 kts | 239° |
| 2026-05-08 07:36 | -37.30244 | 145.90883 | 18970 ft | 329 kts | 252° |
| 2026-05-08 07:36 | -37.30605 | 145.88041 | 18571 ft | 333 kts | 263° |
| 2026-05-08 07:36 | -37.30601 | 145.85127 | 18134 ft | 333 kts | 268° |
| 2026-05-08 07:37 | -37.30533 | 145.82224 | 17686 ft | 331 kts | 266° |
| 2026-05-08 07:37 | -37.30462 | 145.79371 | 17273 ft | 329 kts | 267° |
| 2026-05-08 07:37 | -37.30403 | 145.76511 | 16861 ft | 326 kts | 268° |
| 2026-05-08 07:37 | -37.30355 | 145.73662 | 16461 ft | 323 kts | 268° |
| 2026-05-08 07:38 | -37.30312 | 145.70847 | 16067 ft | 321 kts | 268° |
| 2026-05-08 07:38 | -37.30271 | 145.68046 | 15673 ft | 319 kts | 267° |
| 2026-05-08 07:38 | -37.30452 | 145.65324 | 15274 ft | 314 kts | 255° |
| 2026-05-08 07:38 | -37.30964 | 145.62672 | 14898 ft | 311 kts | 252° |
| 2026-05-08 07:39 | -37.31512 | 145.60049 | 14508 ft | 309 kts | 252° |
| 2026-05-08 07:39 | -37.32057 | 145.57427 | 14095 ft | 310 kts | 252° |
| 2026-05-08 07:39 | -37.32584 | 145.54832 | 13666 ft | 309 kts | 252° |
| 2026-05-08 07:39 | -37.33104 | 145.52221 | 13220 ft | 307 kts | 252° |
| 2026-05-08 07:40 | -37.33613 | 145.49624 | 12856 ft | 303 kts | 252° |
| 2026-05-08 07:40 | -37.34113 | 145.47054 | 12461 ft | 301 kts | 252° |
| 2026-05-08 07:40 | -37.34605 | 145.44514 | 12067 ft | 298 kts | 252° |
| 2026-05-08 07:40 | -37.35093 | 145.41988 | 11684 ft | 295 kts | 252° |
| 2026-05-08 07:41 | -37.35571 | 145.39503 | 11313 ft | 289 kts | 252° |
| 2026-05-08 07:41 | -37.36028 | 145.37116 | 10939 ft | 280 kts | 252° |
| 2026-05-08 07:41 | -37.36481 | 145.34755 | 10412 ft | 277 kts | 251° |
| 2026-05-08 07:41 | -37.36921 | 145.32453 | 10211 ft | 261 kts | 251° |
| 2026-05-08 07:42 | -37.37332 | 145.30294 | 10095 ft | 251 kts | 251° |
| 2026-05-08 07:42 | -37.37746 | 145.28145 | 9786 ft | 253 kts | 251° |
| 2026-05-08 07:42 | -37.38150 | 145.26040 | 9388 ft | 251 kts | 252° |
| 2026-05-08 07:42 | -37.38567 | 145.23863 | 8821 ft | 251 kts | 252° |
| 2026-05-08 07:43 | -37.38957 | 145.21806 | 8687 ft | 231 kts | 251° |
| 2026-05-08 07:43 | -37.39315 | 145.19915 | 8548 ft | 213 kts | 251° |
| 2026-05-08 07:43 | -37.39642 | 145.18192 | 8414 ft | 196 kts | 250° |
| 2026-05-08 07:43 | -37.39945 | 145.16593 | 8238 ft | 181 kts | 250° |
| 2026-05-08 07:44 | -37.40239 | 145.15057 | 7724 ft | 184 kts | 250° |
| 2026-05-08 07:44 | -37.40553 | 145.13433 | 7063 ft | 194 kts | 250° |
| 2026-05-08 07:44 | -37.40849 | 145.11864 | 6826 ft | 178 kts | 250° |
| 2026-05-08 07:44 | -37.41111 | 145.10461 | 6609 ft | 153 kts | 248° |
| 2026-05-08 07:45 | -37.41337 | 145.09256 | 6450 ft | 131 kts | 247° |
| 2026-05-08 07:45 | -37.41537 | 145.08196 | 6336 ft | 121 kts | 245° |
| 2026-05-08 07:45 | -37.41741 | 145.07147 | 6232 ft | 126 kts | 246° |
| 2026-05-08 07:45 | -37.41946 | 145.06082 | 6094 ft | 125 kts | 247° |
| 2026-05-08 07:46 | -37.42145 | 145.05031 | 5966 ft | 121 kts | 247° |
| 2026-05-08 07:46 | -37.42337 | 145.04019 | 5862 ft | 118 kts | 247° |
| 2026-05-08 07:46 | -37.42530 | 145.03007 | 5734 ft | 119 kts | 247° |
| 2026-05-08 07:46 | -37.42719 | 145.02002 | 5619 ft | 119 kts | 248° |
| 2026-05-08 07:47 | -37.42910 | 145.00996 | 5502 ft | 116 kts | 247° |
| 2026-05-08 07:47 | -37.43104 | 144.99977 | 5397 ft | 122 kts | 246° |
| 2026-05-08 07:47 | -37.43303 | 144.98925 | 5270 ft | 123 kts | 246° |
| 2026-05-08 07:47 | -37.43493 | 144.97912 | 5173 ft | 119 kts | 246° |
| 2026-05-08 07:48 | -37.43685 | 144.96895 | 5073 ft | 119 kts | 246° |
| 2026-05-08 07:48 | -37.43877 | 144.95875 | 4975 ft | 119 kts | 246° |
| 2026-05-08 07:48 | -37.44066 | 144.94870 | 4872 ft | 119 kts | 246° |
| 2026-05-08 07:48 | -37.44237 | 144.93841 | 4782 ft | 121 kts | 249° |
| 2026-05-08 07:49 | -37.44385 | 144.92801 | 4700 ft | 119 kts | 250° |
| 2026-05-08 07:49 | -37.44532 | 144.91768 | 4612 ft | 122 kts | 249° |
| 2026-05-08 07:49 | -37.44681 | 144.90719 | 4555 ft | 123 kts | 250° |
| 2026-05-08 07:49 | -37.44830 | 144.89674 | 4467 ft | 118 kts | 249° |
| 2026-05-08 07:50 | -37.44973 | 144.88654 | 4416 ft | 119 kts | 250° |
| 2026-05-08 07:50 | -37.45120 | 144.87614 | 4378 ft | 122 kts | 250° |
| 2026-05-08 07:50 | -37.45269 | 144.86564 | 4305 ft | 120 kts | 250° |
| 2026-05-08 07:50 | -37.45412 | 144.85550 | 4269 ft | 120 kts | 249° |
| 2026-05-08 07:51 | -37.45560 | 144.84506 | 4228 ft | 122 kts | 250° |
| 2026-05-08 07:51 | -37.45707 | 144.83462 | 4182 ft | 120 kts | 249° |
| 2026-05-08 07:51 | -37.45853 | 144.82430 | 4169 ft | 120 kts | 249° |
| 2026-05-08 07:51 | -37.46168 | 144.81500 | 4140 ft | 111 kts | 226° |
| 2026-05-08 07:52 | -37.46693 | 144.80809 | 4055 ft | 109 kts | 212° |
| 2026-05-08 07:52 | -37.47418 | 144.80613 | 3977 ft | 110 kts | 180° |
| 2026-05-08 07:52 | -37.48193 | 144.80645 | 3830 ft | 110 kts | 184° |
| 2026-05-08 07:52 | -37.48956 | 144.80664 | 3672 ft | 107 kts | 185° |
| 2026-05-08 07:53 | -37.49698 | 144.80683 | 3537 ft | 108 kts | 182° |
| 2026-05-08 07:53 | -37.50475 | 144.80759 | 3394 ft | 113 kts | 179° |
| 2026-05-08 07:53 | -37.51259 | 144.80880 | 3231 ft | 113 kts | 178° |
| 2026-05-08 07:53 | -37.52033 | 144.81015 | 3082 ft | 111 kts | 177° |
| 2026-05-08 07:54 | -37.52790 | 144.81154 | 2949 ft | 109 kts | 177° |
| 2026-05-08 07:54 | -37.53542 | 144.81293 | 2794 ft | 113 kts | 176° |
| 2026-05-08 07:54 | -37.54330 | 144.81439 | 2635 ft | 115 kts | 176° |
| 2026-05-08 07:54 | -37.55126 | 144.81588 | 2489 ft | 114 kts | 175° |
| 2026-05-08 07:55 | -37.55901 | 144.81734 | 2334 ft | 115 kts | 176° |
| 2026-05-08 07:55 | -37.56704 | 144.81883 | 2192 ft | 117 kts | 176° |
| 2026-05-08 07:55 | -37.57514 | 144.82033 | 2024 ft | 118 kts | 175° |
| 2026-05-08 07:55 | -37.58321 | 144.82185 | 1863 ft | 119 kts | 174° |
| 2026-05-08 07:56 | -37.59135 | 144.82337 | 1718 ft | 118 kts | 174° |
| 2026-05-08 07:56 | -37.59680 | 144.82438 | 1618 ft | 119 kts | 173° |
| 2026-05-08 07:56 | -37.60775 | 144.82642 | 1399 ft | 121 kts | 174° |
| 2026-05-08 07:56 | -37.61607 | 144.82798 | 1222 ft | 121 kts | 174° |
| 2026-05-08 07:57 | -37.62428 | 144.82951 | 1097 ft | 118 kts | 173° |
| 2026-05-08 07:57 | -37.62979 | 144.83054 | 960 ft | 122 kts | 174° |
| 2026-05-08 07:57 | -37.63792 | 144.83206 | 823 ft | 116 kts | 175° |
| 2026-05-08 07:57 | -37.64612 | 144.83361 | 662 ft | 120 kts | 171° |
| 2026-05-08 07:58 | -37.65441 | 144.83516 | 524 ft | 122 kts | 174° |
| 2026-05-08 07:58 | -37.66279 | 144.83680 | 399 ft | 121 kts | 173° |
| 2026-05-08 07:58 | -37.66924 | 144.83790 | 383 ft | 63 kts | 173° |
| 2026-05-08 07:58 | -37.67326 | 144.83863 | 370 ft | 54 kts | 172° |
| 2026-05-08 07:59 | -37.67663 | 144.83929 | 357 ft | 31 kts | 172° |
| 2026-05-08 07:59 | -37.67859 | 144.84009 | 356 ft | 29 kts | 132° |
| 2026-05-08 07:59 | -37.67874 | 144.84078 | 350 ft | 0 kts | 91° |
| 2026-05-08 08:00 | -37.67874 | 144.84079 | 350 ft | 1 kts | 91° |
| 2026-05-08 08:00 | -37.67863 | 144.84169 | 352 ft | 21 kts | 82° |
| 2026-05-08 08:00 | -37.67846 | 144.84359 | 351 ft | 20 kts | 79° |
| 2026-05-08 08:01 | -37.67817 | 144.84556 | 348 ft | 26 kts | 69° |
| 2026-05-08 08:01 | -37.67666 | 144.84570 | 356 ft | 22 kts | 356° |
| 2026-05-08 08:01 | -37.67514 | 144.84548 | 361 ft | 19 kts | 348° |
| 2026-05-08 08:01 | -37.67446 | 144.84598 | 357 ft | 2 kts | 32° |
| 2026-05-08 08:02 | -37.67403 | 144.84592 | 358 ft | 8 kts | 349° |
| 2026-05-08 08:02 | -37.67342 | 144.84581 | 359 ft | 0 kts | 351° |
| 2026-05-08 08:02 | -37.67341 | 144.84581 | 359 ft | 0 kts | 351° |